createdAt,value
2022-09-20T00:01:06.398Z,86.97
2022-09-20T00:03:33.190Z,87.45
2022-09-20T00:06:04.240Z,86.99
2022-09-20T00:08:31.083Z,86.95
2022-09-20T00:11:18.790Z,87.20
2022-09-20T00:13:47.453Z,86.89
2022-09-20T00:16:20.378Z,86.96
2022-09-20T00:18:55.072Z,86.59
2022-09-20T00:21:28.525Z,86.75
2022-09-20T00:23:57.372Z,87.00
2022-09-20T00:26:24.503Z,86.91
2022-09-20T00:28:51.873Z,87.07
2022-09-20T00:31:18.821Z,86.93
2022-09-20T00:34:04.071Z,86.54
2022-09-20T00:36:31.209Z,86.42
2022-09-20T00:38:59.925Z,86.99
2022-09-20T00:41:27.109Z,86.96
2022-09-20T00:43:54.268Z,87.18
2022-09-20T00:46:26.430Z,87.28
2022-09-20T00:48:57.780Z,87.21
2022-09-20T00:51:32.029Z,86.63
2022-09-20T00:54:00.974Z,86.81
2022-09-20T00:56:34.741Z,86.27
2022-09-20T00:59:16.560Z,86.31
2022-09-20T01:01:52.309Z,86.04
2022-09-20T01:04:22.666Z,85.99
2022-09-20T01:06:53.923Z,86.01
2022-09-20T01:09:20.733Z,86.08
2022-09-20T01:11:48.441Z,86.42
2022-09-20T01:14:17.102Z,86.45
2022-09-20T01:16:43.679Z,86.58
2022-09-20T01:19:24.262Z,86.81
2022-09-20T01:21:52.092Z,86.67
2022-09-20T01:24:33.248Z,87.01
2022-09-20T01:27:20.301Z,86.70
2022-09-20T01:30:06.363Z,87.23
2022-09-20T01:32:41.906Z,87.20
2022-09-20T01:35:09.804Z,87.25
2022-09-20T01:37:58.681Z,87.31
2022-09-20T01:40:38.923Z,87.44
2022-09-20T01:43:18.490Z,87.54
2022-09-20T01:45:48.522Z,87.37
2022-09-20T01:48:30.164Z,87.49
2022-09-20T01:51:32.268Z,87.41
2022-09-20T01:54:30.736Z,87.54
2022-09-20T01:57:38.757Z,87.65
2022-09-20T02:00:13.073Z,87.76
2022-09-20T02:02:39.436Z,87.77
2022-09-20T02:06:04.669Z,87.65
2022-09-20T02:08:52.649Z,87.98
2022-09-20T02:11:22.062Z,87.88
2022-09-20T02:14:04.408Z,87.76
2022-09-20T02:16:37.137Z,87.83
2022-09-20T02:19:32.917Z,87.58
2022-09-20T02:22:11.491Z,87.57
2022-09-20T02:25:01.928Z,87.71
2022-09-20T02:27:53.881Z,87.27
2022-09-20T02:30:46.242Z,87.30
2022-09-20T02:33:43.220Z,87.28
2022-09-20T02:36:18.454Z,87.49
2022-09-20T02:39:15.202Z,87.62
2022-09-20T02:41:59.816Z,87.53
2022-09-20T02:44:49.705Z,88.06
2022-09-20T02:47:53.775Z,88.07
2022-09-20T02:50:41.141Z,88.01
2022-09-20T02:53:25.656Z,88.46
2022-09-20T02:56:03.550Z,88.09
2022-09-20T02:59:00.333Z,88.43
2022-09-20T03:01:45.252Z,88.37
2022-09-20T03:04:26.206Z,88.36
2022-09-20T03:07:05.942Z,88.46
2022-09-20T03:09:53.407Z,89.07
2022-09-20T03:12:58.357Z,89.21
2022-09-20T03:15:27.526Z,88.96
2022-09-20T03:18:00.747Z,89.47
2022-09-20T03:20:59.760Z,89.33
2022-09-20T03:24:03.142Z,89.55
2022-09-20T03:26:41.085Z,90.02
2022-09-20T03:29:16.290Z,90.06
2022-09-20T03:31:58.188Z,90.08
2022-09-20T03:34:27.477Z,90.25
2022-09-20T03:37:03.193Z,90.41
2022-09-20T03:39:57.426Z,90.18
2022-09-20T03:42:29.582Z,90.23
2022-09-20T03:45:20.213Z,90.48
2022-09-20T03:48:06.545Z,90.78
2022-09-20T03:51:01.975Z,90.50
2022-09-20T03:53:48.621Z,90.61
2022-09-20T03:56:39.547Z,90.14
2022-09-20T03:59:26.486Z,90.44
2022-09-20T04:02:09.882Z,90.71
2022-09-20T04:04:44.370Z,90.28
2022-09-20T04:07:15.030Z,90.23
2022-09-20T04:10:18.580Z,90.44
2022-09-20T04:12:53.864Z,90.46
2022-09-20T04:15:32.635Z,90.30
2022-09-20T04:18:12.771Z,90.76
2022-09-20T04:20:59.628Z,90.36
2022-09-20T04:23:54.517Z,90.77
2022-09-20T04:26:26.741Z,90.65
2022-09-20T04:29:08.609Z,90.48
2022-09-20T04:31:59.208Z,90.80
2022-09-20T04:34:51.690Z,90.83
2022-09-20T04:37:33.449Z,90.84
2022-09-20T04:40:15.115Z,90.60
2022-09-20T04:43:12.980Z,90.64
2022-09-20T04:46:01.495Z,90.68
2022-09-20T04:48:46.179Z,91.15
2022-09-20T04:51:39.529Z,91.19
2022-09-20T04:54:21.505Z,91.34
2022-09-20T04:56:53.904Z,91.11
2022-09-20T05:00:12.249Z,91.08
2022-09-20T05:02:47.933Z,91.30
2022-09-20T05:05:52.141Z,91.36
2022-09-20T05:08:41.092Z,91.42
2022-09-20T05:11:17.779Z,91.42
2022-09-20T05:14:22.862Z,91.15
2022-09-20T05:17:20.338Z,91.33
2022-09-20T05:20:08.223Z,91.34
2022-09-20T05:22:40.599Z,91.37
2022-09-20T05:25:07.263Z,91.16
2022-09-20T05:27:44.830Z,91.13
2022-09-20T05:30:26.562Z,91.03
2022-09-20T05:33:15.097Z,91.01
2022-09-20T05:36:00.467Z,91.16
2022-09-20T05:38:26.913Z,91.30
2022-09-20T05:40:53.516Z,91.02
2022-09-20T05:43:30.927Z,91.21
2022-09-20T05:46:18.965Z,91.29
2022-09-20T05:49:10.866Z,91.08
2022-09-20T05:51:58.653Z,90.91
2022-09-20T05:54:54.803Z,91.12
2022-09-20T05:57:45.651Z,91.38
2022-09-20T06:00:29.012Z,91.17
2022-09-20T06:03:17.483Z,91.34
2022-09-20T06:06:21.622Z,91.23
2022-09-20T06:09:25.338Z,91.16
2022-09-20T06:12:13.515Z,91.34
2022-09-20T06:15:04.074Z,91.54
2022-09-20T06:17:39.498Z,91.82
2022-09-20T06:20:42.193Z,91.80
2022-09-20T06:23:10.083Z,91.98
2022-09-20T06:26:07.904Z,91.78
2022-09-20T06:28:41.952Z,91.74
2022-09-20T06:31:11.406Z,91.80
2022-09-20T06:33:45.056Z,91.79
2022-09-20T06:36:36.654Z,91.13
2022-09-20T06:39:43.239Z,91.48
2022-09-20T06:42:10.617Z,91.53
2022-09-20T06:44:43.159Z,91.55
2022-09-20T06:47:14.327Z,91.18
2022-09-20T06:49:42.750Z,90.83
2022-09-20T06:52:14.598Z,91.10
2022-09-20T06:54:45.656Z,91.16
2022-09-20T06:57:16.956Z,91.39
2022-09-20T06:59:43.658Z,91.21
2022-09-20T07:02:11.057Z,91.00
2022-09-20T07:04:37.878Z,91.20
2022-09-20T07:07:09.483Z,91.08
2022-09-20T07:09:36.500Z,90.89
2022-09-20T07:12:03.377Z,90.75
2022-09-20T07:14:29.879Z,90.39
2022-09-20T07:16:56.309Z,89.65
2022-09-20T07:19:23.419Z,89.26
2022-09-20T07:21:49.924Z,89.21
2022-09-20T07:24:16.424Z,89.13
2022-09-20T07:27:05.059Z,88.20
2022-09-20T07:29:31.608Z,87.02
2022-09-20T07:31:58.797Z,86.76
2022-09-20T07:34:25.700Z,87.08
2022-09-20T07:36:52.389Z,86.53
2022-09-20T07:39:19.038Z,86.08
2022-09-20T07:41:51.118Z,86.51
2022-09-20T07:44:21.988Z,86.41
2022-09-20T07:46:49.517Z,86.04
2022-09-20T07:49:16.073Z,85.67
2022-09-20T07:51:42.638Z,85.37
2022-09-20T07:54:09.372Z,85.50
2022-09-20T07:56:36.215Z,85.13
2022-09-20T07:59:02.702Z,84.65
2022-09-20T08:01:29.520Z,83.27
2022-09-20T08:03:57.377Z,83.06
2022-09-20T08:06:24.437Z,82.83
2022-09-20T08:08:51.782Z,83.42
2022-09-20T08:11:27.936Z,82.97
2022-09-20T08:14:11.362Z,83.33
2022-09-20T08:16:43.630Z,85.48
2022-09-20T08:19:16.440Z,85.17
2022-09-20T08:21:43.082Z,85.09
2022-09-20T08:24:09.676Z,85.56
2022-09-20T08:26:37.123Z,85.48
2022-09-20T08:29:05.931Z,85.19
2022-09-20T08:31:35.431Z,83.92
2022-09-20T08:34:06.672Z,84.53
2022-09-20T08:36:36.616Z,84.16
2022-09-20T08:42:20.483Z,84.02
2022-09-20T08:45:00.052Z,83.85
2022-09-20T08:47:35.739Z,84.85
2022-09-20T08:50:10.153Z,83.15
2022-09-20T08:52:40.527Z,82.99
2022-09-20T08:55:17.007Z,81.78
2022-09-20T08:57:49.064Z,82.40
2022-09-20T09:00:18.624Z,82.65
2022-09-20T09:02:45.788Z,81.92
2022-09-20T09:05:29.116Z,82.49
2022-09-20T09:07:55.606Z,82.01
2022-09-20T09:10:24.822Z,81.34
2022-09-20T09:12:51.869Z,79.24
2022-09-20T09:15:25.536Z,78.27
2022-09-20T09:17:53.470Z,78.20
2022-09-20T09:20:22.948Z,76.21
2022-09-20T09:23:25.405Z,77.04
2022-09-20T09:25:54.526Z,75.52
2022-09-20T09:28:25.825Z,75.41
2022-09-20T09:30:52.428Z,74.73
2022-09-20T09:33:30.240Z,73.59
2022-09-20T09:35:56.629Z,74.91
2022-09-20T09:38:32.086Z,73.52
2022-09-20T09:41:00.991Z,72.94
2022-09-20T09:43:31.995Z,70.13
2022-09-20T09:46:21.633Z,71.99
2022-09-20T09:49:05.362Z,71.72
2022-09-20T09:51:33.725Z,70.78
2022-09-20T09:54:00.677Z,71.08
2022-09-20T09:56:47.330Z,71.31
2022-09-20T09:59:40.303Z,71.06
2022-09-20T10:02:54.367Z,73.01
2022-09-20T10:05:28.388Z,75.08
2022-09-20T10:08:15.528Z,75.98
2022-09-20T10:11:10.265Z,75.01
2022-09-20T10:13:58.063Z,74.87
2022-09-20T10:16:31.817Z,75.35
2022-09-20T10:19:00.872Z,74.64
2022-09-20T10:21:44.052Z,73.66
2022-09-20T10:24:31.527Z,72.67
2022-09-20T10:26:57.905Z,73.52
2022-09-20T10:29:26.255Z,73.65
2022-09-20T10:32:21.105Z,72.40
2022-09-20T10:35:27.936Z,73.98
2022-09-20T10:38:00.224Z,73.31
2022-09-20T10:40:58.478Z,71.88
2022-09-20T10:44:04.300Z,71.98
2022-09-20T10:46:40.929Z,69.31
2022-09-20T10:49:46.060Z,69.83
2022-09-20T10:52:26.904Z,67.28
2022-09-20T10:55:06.202Z,65.94
2022-09-20T10:58:01.446Z,67.43
2022-09-20T11:00:37.161Z,66.08
2022-09-20T11:03:26.763Z,65.52
2022-09-20T11:06:05.419Z,65.07
2022-09-20T11:08:37.228Z,64.30
2022-09-20T11:11:24.287Z,63.87
2022-09-20T11:14:01.722Z,65.00
2022-09-20T11:16:38.572Z,64.21
2022-09-20T11:19:10.693Z,62.31
2022-09-20T11:21:43.247Z,62.72
2022-09-20T11:24:28.501Z,63.66
2022-09-20T11:27:00.829Z,64.25
2022-09-20T11:29:35.790Z,64.75
2022-09-20T11:32:15.749Z,62.47
2022-09-20T11:34:55.941Z,62.84
2022-09-20T11:37:28.989Z,62.09
2022-09-20T11:39:56.755Z,63.33
2022-09-20T11:42:30.614Z,62.99
2022-09-20T11:44:57.249Z,60.41
2022-09-20T11:47:53.476Z,61.46
2022-09-20T11:50:35.217Z,60.88
2022-09-20T11:53:26.196Z,59.45
2022-09-20T11:56:01.998Z,58.69
2022-09-20T11:58:28.857Z,58.88
2022-09-20T12:00:58.525Z,57.71
2022-09-20T12:03:40.064Z,59.93
2022-09-20T12:06:28.209Z,59.77
2022-09-20T12:08:58.506Z,59.99
2022-09-20T12:11:30.192Z,59.51
2022-09-20T12:14:17.631Z,58.08
2022-09-20T12:16:47.337Z,58.80
2022-09-20T12:19:36.423Z,59.63
2022-09-20T12:22:05.666Z,58.58
2022-09-20T12:24:34.888Z,59.03
2022-09-20T12:27:21.579Z,59.21
2022-09-20T12:29:47.990Z,57.63
2022-09-20T12:32:40.856Z,59.93
2022-09-20T12:35:35.356Z,58.49
2022-09-20T12:38:20.199Z,58.38
2022-09-20T12:41:05.613Z,58.28
2022-09-20T12:43:34.109Z,57.13
2022-09-20T12:46:06.388Z,58.75
2022-09-20T12:48:37.162Z,57.67
2022-09-20T12:51:45.881Z,57.08
2022-09-20T12:54:13.986Z,57.96
2022-09-20T12:56:41.428Z,57.07
2022-09-20T12:59:27.662Z,58.45
2022-09-20T13:01:54.213Z,56.83
2022-09-20T13:04:40.714Z,56.90
2022-09-20T13:07:53.637Z,58.04
2022-09-20T13:10:27.166Z,58.99
2022-09-20T13:12:59.201Z,57.13
2022-09-20T13:15:26.486Z,59.15
2022-09-20T13:17:56.389Z,58.96
2022-09-20T13:20:29.181Z,58.03
2022-09-20T13:23:00.123Z,58.56
2022-09-20T13:25:28.519Z,59.25
2022-09-20T13:28:41.209Z,58.31
2022-09-20T13:31:24.098Z,57.59
2022-09-20T13:33:51.314Z,59.21
2022-09-20T13:36:30.190Z,58.50
2022-09-20T13:38:58.036Z,58.38
2022-09-20T13:41:29.453Z,58.53
2022-09-20T13:43:57.247Z,56.39
2022-09-20T13:46:33.876Z,55.49
2022-09-20T13:49:09.081Z,56.16
2022-09-20T13:51:35.974Z,56.75
2022-09-20T13:54:31.063Z,58.46
2022-09-20T13:57:03.655Z,58.49
2022-09-20T13:59:35.364Z,60.05
2022-09-20T14:02:02.721Z,59.78
2022-09-20T14:04:31.383Z,60.47
2022-09-20T14:07:00.550Z,59.57
2022-09-20T14:09:32.786Z,60.29
2022-09-20T14:12:00.748Z,60.99
2022-09-20T14:14:27.792Z,61.76
2022-09-20T14:16:56.455Z,62.16
2022-09-20T14:19:38.874Z,61.65
2022-09-20T14:22:06.606Z,62.38
2022-09-20T14:24:35.659Z,62.41
2022-09-20T14:27:16.203Z,62.95
2022-09-20T14:29:45.839Z,62.97
2022-09-20T14:32:18.066Z,63.54
2022-09-20T14:34:56.628Z,62.05
2022-09-20T14:37:30.701Z,60.96
2022-09-20T14:39:58.515Z,62.05
2022-09-20T14:42:35.768Z,61.80
2022-09-20T14:45:05.453Z,62.33
2022-09-20T14:47:52.697Z,62.16
2022-09-20T14:50:28.760Z,61.61
2022-09-20T14:53:13.591Z,61.98
2022-09-20T14:55:54.560Z,62.05
2022-09-20T14:58:21.010Z,62.40
2022-09-20T15:01:01.625Z,62.32
2022-09-20T15:03:34.346Z,61.57
2022-09-20T15:06:00.906Z,59.29
2022-09-20T15:08:27.655Z,59.32
2022-09-20T15:10:54.777Z,59.09
2022-09-20T15:13:21.700Z,59.38
2022-09-20T15:15:51.093Z,59.72
2022-09-20T15:18:22.169Z,59.17
2022-09-20T15:20:50.513Z,58.98
2022-09-20T15:23:17.790Z,57.24
2022-09-20T15:25:44.416Z,57.94
2022-09-20T15:28:15.402Z,59.45
2022-09-20T15:30:41.894Z,58.24
2022-09-20T15:33:09.681Z,58.97
2022-09-20T15:35:36.228Z,59.37
2022-09-20T15:38:02.797Z,61.33
2022-09-20T15:40:29.455Z,60.75
2022-09-20T15:42:58.126Z,60.88
2022-09-20T15:45:26.078Z,61.64
2022-09-20T15:47:55.472Z,61.54
2022-09-20T15:50:23.338Z,60.73
2022-09-20T15:52:51.561Z,60.95
2022-09-20T15:55:19.618Z,60.34
2022-09-20T15:57:46.283Z,61.26
2022-09-20T16:00:13.127Z,60.15
2022-09-20T16:02:39.591Z,60.91
2022-09-20T16:05:06.336Z,61.40
2022-09-20T16:07:32.854Z,61.97
2022-09-20T16:09:59.273Z,62.24
2022-09-20T16:12:25.828Z,62.12
2022-09-20T16:14:52.378Z,62.45
2022-09-20T16:17:39.381Z,62.39
2022-09-20T16:20:06.958Z,62.43
2022-09-20T16:22:34.097Z,61.03
2022-09-20T16:25:05.963Z,60.84
2022-09-20T16:27:34.196Z,60.33
2022-09-20T16:30:02.467Z,60.25
2022-09-20T16:32:28.876Z,60.73
2022-09-20T16:34:55.300Z,60.54
2022-09-20T16:37:22.830Z,61.77
2022-09-20T16:39:49.353Z,62.21
2022-09-20T16:42:16.946Z,63.03
2022-09-20T16:44:43.487Z,62.60
2022-09-20T16:47:22.082Z,63.91
2022-09-20T16:49:50.385Z,63.59
2022-09-20T16:52:16.944Z,63.59
2022-09-20T16:54:43.353Z,63.97
2022-09-20T16:57:10.024Z,64.52
2022-09-20T16:59:36.480Z,64.29
2022-09-20T17:02:03.157Z,64.93
2022-09-20T17:04:30.189Z,64.44
2022-09-20T17:06:56.765Z,65.37
2022-09-20T17:09:23.287Z,65.56
2022-09-20T17:11:50.807Z,66.22
2022-09-20T17:14:19.938Z,67.12
2022-09-20T17:16:47.940Z,67.76
2022-09-20T17:19:18.336Z,67.92
2022-09-20T17:21:49.226Z,68.52
2022-09-20T17:24:16.273Z,68.88
2022-09-20T17:26:45.220Z,69.57
2022-09-20T17:29:16.960Z,70.23
2022-09-20T17:31:50.118Z,70.28
2022-09-20T17:34:21.925Z,71.22
2022-09-20T17:36:50.253Z,71.48
2022-09-20T17:39:16.684Z,70.95
2022-09-20T17:41:45.347Z,71.69
2022-09-20T17:44:12.357Z,71.97
2022-09-20T17:46:40.968Z,72.69
2022-09-20T17:49:10.781Z,72.00
2022-09-20T17:51:51.655Z,72.23
2022-09-20T17:54:19.337Z,72.22
2022-09-20T17:56:47.978Z,72.13
2022-09-20T17:59:16.330Z,72.22
2022-09-20T18:01:43.711Z,72.05
2022-09-20T18:04:11.273Z,72.59
2022-09-20T18:06:44.941Z,72.77
2022-09-20T18:09:15.250Z,73.03
2022-09-20T18:11:46.298Z,73.20
2022-09-20T18:14:13.469Z,73.59
2022-09-20T18:16:40.273Z,73.78
2022-09-20T18:19:08.359Z,74.43
2022-09-20T18:21:36.369Z,74.93
2022-09-20T18:24:06.094Z,75.48
2022-09-20T18:26:32.925Z,75.68
2022-09-20T18:29:01.495Z,75.72
2022-09-20T18:31:32.449Z,75.84
2022-09-20T18:34:00.756Z,75.98
2022-09-20T18:36:27.994Z,75.52
2022-09-20T18:38:55.630Z,76.08
2022-09-20T18:41:25.677Z,75.96
2022-09-20T18:43:55.994Z,76.10
2022-09-20T18:46:24.967Z,76.79
2022-09-20T18:48:53.241Z,76.99
2022-09-20T18:51:20.374Z,76.33
2022-09-20T18:53:47.658Z,76.61
2022-09-20T18:56:25.213Z,76.66
2022-09-20T18:58:53.931Z,76.84
2022-09-20T19:01:42.179Z,76.88
2022-09-20T19:04:29.272Z,77.08
2022-09-20T19:07:05.127Z,77.12
2022-09-20T19:09:48.763Z,77.30
2022-09-20T19:12:25.855Z,77.37
2022-09-20T19:15:14.191Z,77.55
2022-09-20T19:17:40.894Z,77.60
2022-09-20T19:20:26.029Z,77.71
2022-09-20T19:23:30.182Z,77.82
2022-09-20T19:26:20.369Z,77.93
2022-09-20T19:28:51.407Z,78.11
2022-09-20T19:31:33.055Z,77.81
2022-09-20T19:34:04.042Z,78.07
2022-09-20T19:36:39.641Z,78.35
2022-09-20T19:39:18.269Z,78.69
2022-09-20T19:42:03.662Z,78.37
2022-09-20T19:45:01.883Z,78.42
2022-09-20T19:47:45.733Z,78.30
2022-09-20T19:50:16.190Z,79.03
2022-09-20T19:52:43.997Z,78.56
2022-09-20T19:55:12.515Z,79.01
2022-09-20T19:57:47.176Z,79.00
2022-09-20T20:00:16.146Z,79.02
2022-09-20T20:02:44.574Z,79.49
2022-09-20T20:05:17.272Z,78.87
2022-09-20T20:07:54.283Z,78.88
2022-09-20T20:10:33.262Z,78.86
2022-09-20T20:13:35.107Z,79.40
2022-09-20T20:16:06.191Z,79.44
2022-09-20T20:18:38.950Z,79.62
2022-09-20T20:21:16.553Z,79.78
2022-09-20T20:23:43.003Z,79.91
2022-09-20T20:26:23.533Z,80.26
2022-09-20T20:28:51.663Z,80.45
2022-09-20T20:31:19.696Z,80.21
2022-09-20T20:33:46.262Z,80.53
2022-09-20T20:36:12.902Z,80.15
2022-09-20T20:38:40.761Z,80.39
2022-09-20T20:41:10.126Z,80.81
2022-09-20T20:43:43.704Z,80.70
2022-09-20T20:46:14.243Z,80.80
2022-09-20T20:48:41.039Z,80.92
2022-09-20T20:51:13.520Z,80.70
2022-09-20T20:53:48.200Z,80.66
2022-09-20T20:56:20.790Z,80.79
2022-09-20T20:58:48.880Z,81.06
2022-09-20T21:01:15.382Z,81.23
2022-09-20T21:03:45.937Z,81.08
2022-09-20T21:06:13.257Z,81.23
2022-09-20T21:08:43.801Z,81.74
2022-09-20T21:11:16.400Z,81.91
2022-09-20T21:13:42.902Z,82.10
2022-09-20T21:16:11.257Z,82.03
2022-09-20T21:18:39.656Z,82.32
2022-09-20T21:21:15.836Z,82.04
2022-09-20T21:23:43.334Z,81.99
2022-09-20T21:26:12.480Z,82.17
2022-09-20T21:28:41.518Z,82.19
2022-09-20T21:31:09.975Z,82.36
2022-09-20T21:33:39.264Z,82.15
2022-09-20T21:36:06.795Z,82.17
2022-09-20T21:38:36.160Z,82.12
2022-09-20T21:41:14.657Z,82.42
2022-09-20T21:43:43.246Z,82.48
2022-09-20T21:46:13.618Z,82.96
2022-09-20T21:48:41.149Z,82.93
2022-09-20T21:51:10.529Z,83.14
2022-09-20T21:53:38.509Z,82.87
2022-09-20T21:56:07.185Z,82.78
2022-09-20T21:58:34.114Z,83.02
2022-09-20T22:01:10.074Z,82.78
2022-09-20T22:03:39.315Z,82.96
2022-09-20T22:06:14.691Z,83.14
2022-09-20T22:08:46.461Z,83.32
2022-09-20T22:11:14.993Z,83.34
2022-09-20T22:13:46.486Z,83.36
2022-09-20T22:16:18.971Z,83.41
2022-09-20T22:18:46.826Z,83.62
2022-09-20T22:21:19.257Z,83.66
2022-09-20T22:23:49.476Z,83.73
2022-09-20T22:26:18.799Z,84.29
2022-09-20T22:28:45.428Z,85.02
2022-09-20T22:31:14.536Z,85.34
2022-09-20T22:33:46.476Z,85.30
2022-09-20T22:36:15.824Z,85.26
2022-09-20T22:38:44.124Z,85.16
2022-09-20T22:41:11.268Z,84.87
2022-09-20T22:43:38.311Z,84.62
2022-09-20T22:46:27.813Z,84.56
2022-09-20T22:48:54.839Z,84.65
2022-09-20T22:51:22.724Z,84.49
2022-09-20T22:53:50.103Z,84.96
2022-09-20T22:56:22.899Z,84.67
2022-09-20T22:58:51.799Z,84.74
2022-09-20T23:01:19.808Z,84.63
2022-09-20T23:03:57.881Z,84.61
2022-09-20T23:06:37.191Z,84.64
2022-09-20T23:09:08.041Z,84.76
2022-09-20T23:11:35.842Z,84.62
2022-09-20T23:14:07.394Z,84.80
2022-09-20T23:16:36.322Z,84.53
2022-09-20T23:19:05.019Z,84.20
2022-09-20T23:21:32.441Z,84.76
2022-09-20T23:24:03.944Z,84.19
2022-09-20T23:26:32.973Z,84.50
2022-09-20T23:29:02.518Z,84.56
2022-09-20T23:31:31.879Z,84.42
2022-09-20T23:34:00.156Z,84.23
2022-09-20T23:36:28.977Z,84.65
2022-09-20T23:38:56.963Z,84.54
2022-09-20T23:41:25.576Z,84.51
2022-09-20T23:43:52.514Z,84.69
2022-09-20T23:46:20.553Z,84.81
2022-09-20T23:48:47.495Z,84.93
2022-09-20T23:51:16.623Z,84.72
2022-09-20T23:53:44.128Z,84.93
2022-09-20T23:56:12.453Z,84.80
2022-09-20T23:58:41.412Z,84.69
